»·PEaware :: UAL5572 KDEN-KBOI

UAL5572 :: KDEN-KBOI

FLIGHT INFORMATION

Flight Status: Arrived
Operator:
United Airlines
More flights by this operator :: More flights under this callsign
Pilot: Aundrey S. (17120)
Aircraft: EMBRAER EMB-170/175
(E170)
More flights by this aircraft type
Origin: KDEN Denver Intl
United States
Destination: KBOI Boise Air Terminal/Gowen
United States
More flights between these airports :: More routes between these airports
Route: FOOOT3 RLG MLD REAPS KOURT3
File this flight plan on PilotEdge
Remarks:
Altitude:
(Current/Filed)
32,000ft
Speed:
(Current/Filed)
450kts
Departed: 16-May-18 01:21 PM
Arrived: 16-May-18 02:57 PM
Distance/Time
Traveled:
563nm/1:36
Distance/Time
To Go:
Arrived

Flight Plot

Page will automatically refresh every two minutes.

Flight plan parsing failed; only flown route is shown


Map Options




Map Legend


Flown Route
Filed Route
Departure Airport
Arrival Airport
Navaid (VOR, NDB)
Fix

Horizontal Profiles

Position Reports

Time Latitude Longitude Heading Altitude Ground
Speed
16-May-18 12:31 39.859235 -104.671335 180 5440ft 0kts
16-May-18 12:32 39.859235 -104.671335 180 5440ft 0kts
16-May-18 12:33 39.859235 -104.671335 180 5440ft 0kts
16-May-18 12:34 39.859235 -104.671335 180 5440ft 0kts
16-May-18 12:35 39.859235 -104.671335 180 5440ft 0kts
16-May-18 12:36 39.859235 -104.671335 180 5440ft 0kts
16-May-18 12:37 39.859235 -104.671335 180 5440ft 0kts
16-May-18 12:38 39.859235 -104.671335 180 5440ft 0kts
16-May-18 12:39 39.859235 -104.671335 180 5440ft 0kts
16-May-18 12:40 39.859235 -104.671335 180 5440ft 0kts
16-May-18 12:41 39.859235 -104.671335 180 5440ft 0kts
16-May-18 12:42 39.859235 -104.671335 180 5440ft 0kts
16-May-18 12:43 39.859235 -104.671335 180 5440ft 0kts
16-May-18 12:44 39.859235 -104.671335 180 5440ft 0kts
16-May-18 12:45 39.859235 -104.671335 180 5440ft 0kts
16-May-18 12:46 39.859235 -104.671335 180 5440ft 0kts
16-May-18 12:47 39.859235 -104.671335 180 5440ft 0kts
16-May-18 12:48 39.859235 -104.671335 180 5440ft 0kts
16-May-18 12:49 39.859235 -104.671335 180 5440ft 0kts
16-May-18 12:50 39.859235 -104.671335 180 5440ft 0kts
16-May-18 12:51 39.859235 -104.671335 180 5440ft 0kts
16-May-18 12:52 39.859235 -104.671335 180 5440ft 0kts
16-May-18 12:53 39.859235 -104.671335 180 5440ft 0kts
16-May-18 12:54 39.859235 -104.671335 180 5440ft 0kts
16-May-18 12:55 39.859235 -104.671335 180 5440ft 0kts
16-May-18 12:56 39.859235 -104.671335 180 5440ft 0kts
16-May-18 12:57 39.859235 -104.671335 180 5440ft 0kts
16-May-18 12:58 39.859235 -104.671335 180 5440ft 0kts
16-May-18 12:59 39.859235 -104.671335 180 5440ft 0kts
16-May-18 13:00 39.859235 -104.671335 180 5440ft 0kts
16-May-18 13:01 39.859235 -104.671335 180 5440ft 0kts
16-May-18 13:02 39.859235 -104.671335 180 5440ft 0kts
16-May-18 13:03 39.859235 -104.671335 180 5440ft 0kts
16-May-18 13:04 39.859235 -104.671335 180 5440ft 0kts
16-May-18 13:05 39.859603 -104.671333 180 5440ft 2kts
16-May-18 13:06 39.860217 -104.671330 180 5440ft 2kts
16-May-18 13:07 39.860262 -104.671330 180 5440ft 0kts
16-May-18 13:08 39.860262 -104.671330 180 5440ft 0kts
16-May-18 13:09 39.860262 -104.671330 179 5440ft 0kts
16-May-18 13:10 39.860262 -104.671330 180 5440ft 0kts
16-May-18 13:11 39.860262 -104.671330 180 5440ft 0kts
16-May-18 13:12 39.860228 -104.671333 185 5440ft 2kts
16-May-18 13:13 39.860009 -104.674591 269 5440ft 16kts
16-May-18 13:14 39.860256 -104.680361 272 5440ft 0kts
16-May-18 13:15 39.860277 -104.681761 269 5440ft 11kts
16-May-18 13:16 39.857401 -104.683959 179 5440ft 19kts
16-May-18 13:17 39.850868 -104.684028 179 5440ft 25kts
16-May-18 13:18 39.843966 -104.684105 180 5440ft 20kts
16-May-18 13:19 39.841852 -104.684124 180 5440ft 0kts
16-May-18 13:20 39.841774 -104.684125 180 5440ft 4kts
16-May-18 13:21 39.840740 -104.705241 269 5540ft 169kts
16-May-18 13:22 39.851173 -104.763445 303 7156ft 196kts
16-May-18 13:23 39.885204 -104.834881 298 9899ft 232kts
16-May-18 13:24 39.915200 -104.913096 297 11758ft 235kts
16-May-18 13:25 39.948517 -105.007437 284 12992ft 350kts
16-May-18 13:26 39.963321 -105.132199 279 17575ft 344kts
16-May-18 13:27 39.977275 -105.260199 278 20759ft 363kts
16-May-18 13:28 39.984715 -105.392961 268 23071ft 389kts
16-May-18 13:29 39.978543 -105.530562 268 25626ft 388kts
16-May-18 13:30 39.974585 -105.669270 268 26915ft 395kts
16-May-18 13:31 39.971631 -105.812504 269 28439ft 399kts
16-May-18 13:32 39.974954 -105.957998 275 29946ft 406kts
16-May-18 13:33 39.984002 -106.105488 275 31337ft 408kts
16-May-18 13:34 39.992228 -106.251912 275 32282ft 406kts
16-May-18 13:35 40.000262 -106.402501 275 32186ft 422kts
16-May-18 13:36 40.038682 -106.545900 297 32179ft 423kts
16-May-18 13:37 40.095334 -106.678267 298 32362ft 423kts
16-May-18 13:38 40.150818 -106.811078 297 32375ft 422kts
16-May-18 13:39 40.205348 -106.945974 296 32370ft 421kts
16-May-18 13:40 40.259446 -107.082234 296 32130ft 423kts
16-May-18 13:41 40.313421 -107.218958 296 32128ft 423kts
16-May-18 13:42 40.367251 -107.355840 296 32127ft 423kts
16-May-18 13:43 40.420953 -107.493008 296 32099ft 424kts
16-May-18 13:44 40.473220 -107.627138 297 32098ft 424kts
16-May-18 13:45 40.525783 -107.763480 296 32104ft 424kts
16-May-18 13:46 40.578872 -107.901788 296 32102ft 424kts
16-May-18 13:47 40.632007 -108.040120 295 32101ft 423kts
16-May-18 13:48 40.684688 -108.177813 295 32101ft 423kts
16-May-18 13:49 40.737277 -108.315958 295 32019ft 423kts
16-May-18 13:50 40.789805 -108.454570 295 32018ft 423kts
16-May-18 13:51 40.842114 -108.593269 295 32126ft 422kts
16-May-18 13:52 40.892381 -108.727657 295 32103ft 422kts
16-May-18 13:53 40.944148 -108.867225 295 32103ft 422kts
16-May-18 13:54 40.995905 -109.006667 295 32101ft 422kts
16-May-18 13:55 41.047536 -109.146188 295 32100ft 422kts
16-May-18 13:56 41.098944 -109.285766 295 32099ft 422kts
16-May-18 13:57 41.149647 -109.421265 293 32101ft 414kts
16-May-18 13:58 41.201152 -109.560519 291 32095ft 422kts
16-May-18 13:59 41.251353 -109.698954 290 32102ft 424kts
16-May-18 14:00 41.293691 -109.817073 290 32107ft 425kts
16-May-18 14:01 41.352915 -109.982265 290 32129ft 425kts
16-May-18 14:02 41.403590 -110.123985 290 32127ft 425kts
16-May-18 14:03 41.454353 -110.266627 290 32127ft 426kts
16-May-18 14:04 41.504720 -110.408931 290 32125ft 426kts
16-May-18 14:05 41.555183 -110.552253 290 32127ft 426kts
16-May-18 14:06 41.604828 -110.694126 289 32134ft 426kts
16-May-18 14:07 41.646103 -110.813309 289 32130ft 427kts
16-May-18 14:08 41.695839 -110.956953 289 32129ft 426kts
16-May-18 14:09 41.745526 -111.100858 289 32131ft 427kts
16-May-18 14:10 41.795200 -111.245434 289 32029ft 428kts
16-May-18 14:11 41.844639 -111.390066 289 32021ft 428kts
16-May-18 14:12 41.893933 -111.535036 289 32020ft 428kts
16-May-18 14:13 41.942738 -111.679389 288 32030ft 428kts
16-May-18 14:14 41.991295 -111.824587 288 32026ft 428kts
16-May-18 14:15 42.040165 -111.970851 288 32026ft 429kts
16-May-18 14:16 42.088883 -112.117022 288 32026ft 429kts
16-May-18 14:17 42.137295 -112.260753 288 32015ft 430kts
16-May-18 14:18 42.186159 -112.407555 287 32015ft 430kts
16-May-18 14:19 42.251486 -112.544506 303 32014ft 444kts
16-May-18 14:20 42.329787 -112.668213 303 31996ft 444kts
16-May-18 14:21 42.407972 -112.797099 301 31993ft 442kts
16-May-18 14:22 42.484626 -112.926586 301 31994ft 442kts
16-May-18 14:23 42.561514 -113.056674 302 31994ft 442kts
16-May-18 14:24 42.638136 -113.186672 302 31991ft 450kts
16-May-18 14:25 42.717436 -113.322085 302 31969ft 460kts
16-May-18 14:26 42.797045 -113.458032 303 31970ft 460kts
16-May-18 14:27 42.876375 -113.594449 303 31971ft 461kts
16-May-18 14:28 42.955513 -113.731750 302 30291ft 466kts
16-May-18 14:29 43.034984 -113.870455 303 27947ft 468kts
16-May-18 14:30 43.114585 -114.008832 304 25574ft 472kts
16-May-18 14:31 43.182888 -114.157347 284 23968ft 447kts
16-May-18 14:32 43.209814 -114.315203 277 22349ft 412kts
16-May-18 14:33 43.235807 -114.467386 281 20860ft 408kts
16-May-18 14:34 43.264781 -114.615986 282 19412ft 399kts
16-May-18 14:35 43.292181 -114.759531 281 18036ft 390kts
16-May-18 14:36 43.318819 -114.901482 281 16718ft 377kts
16-May-18 14:37 43.343748 -115.034860 281 15441ft 344kts
16-May-18 14:38 43.366621 -115.158756 281 14286ft 330kts
16-May-18 14:39 43.388891 -115.279515 282 13242ft 326kts
16-May-18 14:40 43.410798 -115.398815 283 12218ft 321kts
16-May-18 14:41 43.431410 -115.511692 284 11228ft 293kts
16-May-18 14:42 43.454716 -115.619033 294 10332ft 295kts
16-May-18 14:43 43.488164 -115.721706 295 9298ft 288kts
16-May-18 14:44 43.521109 -115.823218 295 9088ft 292kts
16-May-18 14:45 43.553824 -115.924590 295 8743ft 277kts
16-May-18 14:46 43.582942 -116.015134 295 8285ft 244kts
16-May-18 14:47 43.609682 -116.100348 293 7969ft 241kts
16-May-18 14:48 43.634816 -116.186427 293 7977ft 243kts
16-May-18 14:49 43.660052 -116.272718 293 7995ft 241kts
16-May-18 14:50 43.685341 -116.358997 293 7979ft 241kts
16-May-18 14:51 43.710245 -116.445738 285 6939ft 247kts
16-May-18 14:52 43.666283 -116.482752 143 5612ft 239kts
16-May-18 14:53 43.625659 -116.417051 110 4845ft 211kts
16-May-18 14:54 43.605173 -116.347604 112 4514ft 181kts
16-May-18 14:55 43.587402 -116.294033 112 3646ft 139kts
16-May-18 14:56 43.571148 -116.245658 113 2910ft 142kts
16-May-18 14:57 43.564215 -116.225310 114 2846ft 22kts
16-May-18 14:58 43.566622 -116.222962 91 2848ft 12kts
16-May-18 14:59 43.567087 -116.220362 21 2850ft 1kts

Navigation Log

Ident Type
Flight plan parsing failed, navigation log unavailable